Time;durP1;ratioP1;P1;durP2;ratioP2;P2;SDS_P1;SDS_P2;PMS_P1;PMS_P2;Temp;Humidity;BMP_temperature;BMP_pressure;BME280_temperature;BME280_humidity;BME280_pressure;Samples;Min_cycle;Max_cycle;Signal;HPM_P1;HPM_P2
2024/01/29 00:00:34;;;;;;;0.30;0.30;;;17.90;66.70;;;;;;6134363;23;20143;-85
2024/01/29 00:03:00;;;;;;;1.35;0.40;;;17.90;67.00;;;;;;6159206;23;20135;-85
2024/01/29 00:05:26;;;;;;;0.65;0.47;;;18.00;67.00;;;;;;6133978;23;20154;-85
2024/01/29 00:07:53;;;;;;;0.63;0.40;;;17.90;66.60;;;;;;6135863;23;20543;-85
2024/01/29 00:10:21;;;;;;;1.85;0.40;;;17.90;66.60;;;;;;6134177;23;20181;-85
2024/01/29 00:12:47;;;;;;;1.13;0.45;;;17.90;66.60;;;;;;6158724;23;20181;-85
2024/01/29 00:15:14;;;;;;;0.57;0.50;;;17.90;66.50;;;;;;6159272;23;20162;-85
2024/01/29 00:17:40;;;;;;;0.70;0.38;;;17.90;66.70;;;;;;6134582;23;20585;-85
2024/01/29 00:20:07;;;;;;;0.40;0.40;;;17.90;66.50;;;;;;6134818;23;20154;-86
2024/01/29 00:22:33;;;;;;;1.75;0.50;;;17.90;66.70;;;;;;6097053;23;20199;-84
2024/01/29 00:24:59;;;;;;;0.80;0.50;;;17.90;66.50;;;;;;6075769;23;20160;-85
2024/01/29 00:27:24;;;;;;;0.55;0.40;;;17.90;66.60;;;;;;6107696;23;20215;-84
2024/01/29 00:29:50;;;;;;;0.65;0.40;;;17.90;66.40;;;;;;6129399;23;20136;-86
2024/01/29 00:32:16;;;;;;;0.45;0.40;;;18.00;66.00;;;;;;6132334;23;20246;-84
2024/01/29 00:34:42;;;;;;;1.20;0.47;;;18.00;66.50;;;;;;6110543;23;20525;-84
2024/01/29 00:37:08;;;;;;;0.50;0.40;;;18.00;66.50;;;;;;6133254;23;20592;-85
2024/01/29 00:39:35;;;;;;;0.73;0.50;;;17.90;66.70;;;;;;6133157;23;20138;-86
2024/01/29 00:42:01;;;;;;;0.70;0.57;;;17.90;66.60;;;;;;6135358;23;20174;-85
2024/01/29 00:44:26;;;;;;;0.90;0.50;;;17.90;66.70;;;;;;6110231;23;20151;-85
2024/01/29 00:46:52;;;;;;;0.63;0.40;;;17.90;66.40;;;;;;6110567;23;20150;-85
2024/01/29 00:49:18;;;;;;;0.50;0.40;;;17.90;66.30;;;;;;6129678;23;20237;-85
2024/01/29 00:51:43;;;;;;;0.80;0.40;;;17.90;66.30;;;;;;6157710;23;20578;-85
2024/01/29 00:54:09;;;;;;;1.48;0.40;;;17.90;66.30;;;;;;6158795;23;20170;-85
2024/01/29 00:56:35;;;;;;;0.40;0.40;;;17.90;65.80;;;;;;6133570;23;20155;-84
2024/01/29 00:59:01;;;;;;;0.60;0.60;;;17.90;66.30;;;;;;6135051;23;20578;-84
2024/01/29 01:01:26;;;;;;;0.50;0.40;;;17.90;66.10;;;;;;6135120;23;20154;-85
2024/01/29 01:03:53;;;;;;;0.43;0.40;;;17.90;66.30;;;;;;6159751;23;20569;-85
2024/01/29 01:06:19;;;;;;;0.50;0.43;;;17.90;66.30;;;;;;6158324;23;20131;-85
2024/01/29 01:08:44;;;;;;;0.65;0.52;;;17.80;66.30;;;;;;6159530;23;20147;-85
2024/01/29 01:11:10;;;;;;;1.42;0.50;;;17.90;66.20;;;;;;6159680;23;20582;-86
2024/01/29 01:13:36;;;;;;;1.00;0.43;;;17.90;66.30;;;;;;6159422;23;20574;-85
2024/01/29 01:16:02;;;;;;;0.40;0.40;;;17.90;66.30;;;;;;6159665;23;20223;-85
2024/01/29 01:18:28;;;;;;;0.40;0.40;;;17.90;66.40;;;;;;6159729;23;20555;-85
2024/01/29 01:20:53;;;;;;;0.52;0.40;;;17.90;66.00;;;;;;6133805;23;20213;-85
2024/01/29 01:23:19;;;;;;;0.38;0.38;;;17.90;66.00;;;;;;6134382;23;20155;-85
2024/01/29 01:25:45;;;;;;;1.05;0.40;;;17.90;66.20;;;;;;6159226;23;20613;-85
2024/01/29 01:28:10;;;;;;;0.65;0.50;;;17.90;66.00;;;;;;6157525;23;20573;-85
2024/01/29 01:30:36;;;;;;;1.15;0.45;;;17.90;66.30;;;;;;6157476;23;20594;-86
2024/01/29 01:33:02;;;;;;;2.13;0.50;;;17.90;65.60;;;;;;6133498;23;20567;-85
2024/01/29 01:35:28;;;;;;;0.68;0.30;;;17.90;66.00;;;;;;6133637;23;20617;-85
2024/01/29 01:37:54;;;;;;;0.70;0.47;;;17.90;66.20;;;;;;6157313;23;20146;-85
2024/01/29 01:40:19;;;;;;;0.55;0.40;;;17.90;66.00;;;;;;6134232;23;20146;-84
2024/01/29 01:42:47;;;;;;;0.65;0.38;;;17.90;66.00;;;;;;6134135;23;20146;-84
2024/01/29 01:45:13;;;;;;;0.55;0.40;;;17.80;65.90;;;;;;6134971;23;20154;-85
2024/01/29 01:47:39;;;;;;;1.00;0.45;;;17.90;66.00;;;;;;6159196;23;20209;-85
2024/01/29 01:50:06;;;;;;;1.10;0.60;;;17.90;65.60;;;;;;6151566;23;20649;-84
2024/01/29 01:52:32;;;;;;;0.50;0.40;;;17.80;65.70;;;;;;6127252;23;20136;-85
2024/01/29 01:54:58;;;;;;;0.80;0.32;;;17.80;66.10;;;;;;6104695;23;20187;-84
2024/01/29 01:57:24;;;;;;;0.68;0.55;;;17.90;66.00;;;;;;6126918;23;20143;-84
2024/01/29 01:59:50;;;;;;;0.55;0.55;;;17.90;66.00;;;;;;6104244;23;20210;-85
2024/01/29 02:02:15;;;;;;;0.68;0.40;;;17.80;66.10;;;;;;6104382;23;20625;-84
2024/01/29 02:04:41;;;;;;;0.85;0.45;;;17.80;65.60;;;;;;6105074;23;20570;-85
2024/01/29 02:07:07;;;;;;;0.70;0.40;;;17.80;66.00;;;;;;6103753;23;20155;-85
2024/01/29 02:09:33;;;;;;;0.50;0.40;;;17.80;66.10;;;;;;6104349;23;20566;-85
2024/01/29 02:11:59;;;;;;;0.30;0.30;;;17.90;65.70;;;;;;6126972;23;20457;-85
2024/01/29 02:14:24;;;;;;;2.17;0.50;;;17.80;66.00;;;;;;6102942;23;20282;-85
2024/01/29 02:16:50;;;;;;;1.02;0.50;;;17.80;65.80;;;;;;6103233;23;20589;-88
2024/01/29 02:19:16;;;;;;;0.38;0.38;;;17.80;65.80;;;;;;6103562;23;20147;-85
2024/01/29 02:21:43;;;;;;;0.55;0.52;;;17.80;65.60;;;;;;6104867;23;20143;-85
2024/01/29 02:24:09;;;;;;;1.92;0.60;;;17.80;65.90;;;;;;6079869;23;20154;-85
2024/01/29 02:26:34;;;;;;;0.63;0.50;;;17.80;65.60;;;;;;6104420;23;20143;-85
2024/01/29 02:29:00;;;;;;;0.95;0.50;;;17.90;65.70;;;;;;6128899;23;20135;-85
2024/01/29 02:31:26;;;;;;;1.83;0.60;;;17.80;65.40;;;;;;6080479;23;20567;-85
2024/01/29 02:33:52;;;;;;;1.15;0.50;;;17.80;65.30;;;;;;6102587;23;20138;-86
2024/01/29 02:36:18;;;;;;;0.90;0.60;;;17.80;65.60;;;;;;6128329;23;20155;-85
2024/01/29 02:38:44;;;;;;;2.33;0.52;;;17.80;65.30;;;;;;6079559;23;20198;-85
2024/01/29 02:41:10;;;;;;;0.40;0.40;;;17.80;65.40;;;;;;6104494;23;20562;-85
2024/01/29 02:43:35;;;;;;;0.63;0.43;;;17.80;65.40;;;;;;6105257;23;20517;-85
2024/01/29 02:46:01;;;;;;;0.70;0.40;;;17.80;65.60;;;;;;6128531;23;20506;-85
2024/01/29 02:48:27;;;;;;;0.73;0.50;;;17.80;65.40;;;;;;6128944;23;20499;-85
2024/01/29 02:50:52;;;;;;;1.58;0.50;;;17.80;65.60;;;;;;6155077;23;20131;-85
2024/01/29 02:53:18;;;;;;;1.20;0.52;;;17.80;65.80;;;;;;6080218;23;20546;-85
2024/01/29 02:55:44;;;;;;;0.45;0.38;;;17.80;65.60;;;;;;6079724;23;20230;-85
2024/01/29 02:58:10;;;;;;;0.90;0.40;;;17.80;65.00;;;;;;6103389;23;20140;-85
2024/01/29 03:00:36;;;;;;;1.15;0.52;;;17.80;65.20;;;;;;6126867;23;20664;-86
2024/01/29 03:03:03;;;;;;;1.00;0.47;;;17.80;65.60;;;;;;6134896;23;20142;-85
2024/01/29 03:05:28;;;;;;;0.45;0.43;;;17.90;65.60;;;;;;6134662;23;20155;-85
2024/01/29 03:07:54;;;;;;;1.20;0.57;;;17.80;65.70;;;;;;6110383;23;20166;-85
2024/01/29 03:10:20;;;;;;;0.40;0.40;;;17.80;65.20;;;;;;6159860;23;20131;-84
2024/01/29 03:15:15;;;;;;;1.17;0.52;;;17.80;65.60;;;;;;6126075;23;20202;-84
2024/01/29 03:17:41;;;;;;;1.10;0.60;;;17.80;65.60;;;;;;6100419;23;20148;-85
2024/01/29 03:20:07;;;;;;;0.95;0.60;;;17.80;66.10;;;;;;6051803;23;20151;-84
2024/01/29 03:22:33;;;;;;;0.63;0.50;;;17.90;65.10;;;;;;6076656;23;20132;-86
2024/01/29 03:24:59;;;;;;;0.90;0.65;;;17.80;64.80;;;;;;6052532;23;20183;-85
2024/01/29 03:27:25;;;;;;;0.77;0.50;;;17.80;65.30;;;;;;6052585;23;20491;-84
2024/01/29 03:29:50;;;;;;;0.75;0.50;;;17.80;65.20;;;;;;6053554;23;20156;-85
2024/01/29 03:32:16;;;;;;;1.15;0.60;;;17.80;65.30;;;;;;6076519;23;20136;-84
2024/01/29 03:34:42;;;;;;;0.90;0.60;;;17.80;65.60;;;;;;6099683;23;20686;-84
2024/01/29 03:37:08;;;;;;;0.85;0.57;;;17.70;65.40;;;;;;6074801;23;20512;-85
2024/01/29 03:41:59;;;;;;;0.55;0.40;;;17.80;65.30;;;;;;6137049;23;20290;-85
2024/01/29 03:44:25;;;;;;;1.15;0.60;;;17.80;65.40;;;;;;6155241;23;21106;-84
2024/01/29 03:46:51;;;;;;;0.85;0.50;;;17.80;65.20;;;;;;6134596;23;20179;-84
2024/01/29 03:51:43;;;;;;;0.43;0.40;;;17.80;65.30;;;;;;6182320;23;20214;-85
2024/01/29 03:54:08;;;;;;;0.75;0.50;;;17.80;65.20;;;;;;6159372;23;20169;-84
2024/01/29 03:56:35;;;;;;;1.00;0.60;;;17.80;65.20;;;;;;6134546;23;20535;-85
2024/01/29 03:59:02;;;;;;;0.95;0.77;;;17.80;65.00;;;;;;6136335;23;20222;-84
2024/01/29 04:01:28;;;;;;;0.68;0.50;;;17.80;65.00;;;;;;6136275;23;20135;-84
2024/01/29 04:03:54;;;;;;;0.57;0.50;;;17.80;64.80;;;;;;6136137;23;20143;-85
2024/01/29 04:06:20;;;;;;;1.58;0.50;;;17.80;65.10;;;;;;6136992;23;20144;-84
2024/01/29 04:08:45;;;;;;;0.85;0.32;;;17.80;64.90;;;;;;6136991;23;20468;-84
2024/01/29 04:11:11;;;;;;;0.60;0.50;;;17.80;65.20;;;;;;6136425;23;20578;-85
2024/01/29 04:13:39;;;;;;;0.73;0.70;;;17.80;64.90;;;;;;6135771;23;20214;-84
2024/01/29 04:39:16;;;;;;;1.13;0.57;;;17.80;64.90;;;;;;6158159;23;20235;-85
2024/01/29 04:41:42;;;;;;;0.93;0.50;;;17.80;65.00;;;;;;6134629;23;20578;-85
2024/01/29 04:44:07;;;;;;;0.63;0.50;;;17.70;64.70;;;;;;6134093;23;20154;-85
2024/01/29 04:46:33;;;;;;;1.75;0.57;;;17.70;64.80;;;;;;6135795;23;20585;-85
2024/01/29 04:48:59;;;;;;;0.82;0.80;;;17.70;64.90;;;;;;6148782;23;20744;-85
2024/01/29 04:51:25;;;;;;;0.57;0.55;;;17.80;64.70;;;;;;6110835;23;20505;-85
2024/01/29 04:53:51;;;;;;;0.93;0.70;;;17.70;64.80;;;;;;6111373;23;20143;-84
2024/01/29 04:56:17;;;;;;;0.63;0.43;;;17.70;64.70;;;;;;6135824;23;20227;-84
2024/01/29 04:58:43;;;;;;;0.73;0.50;;;17.70;64.90;;;;;;6111997;23;20166;-85
2024/01/29 05:01:09;;;;;;;0.90;0.60;;;17.70;64.90;;;;;;6111123;23;20573;-84
2024/01/29 05:03:35;;;;;;;0.75;0.50;;;17.70;64.90;;;;;;6111682;23;20135;-85
2024/01/29 05:06:01;;;;;;;0.98;0.63;;;17.70;64.40;;;;;;6135376;23;20234;-84
2024/01/29 05:08:27;;;;;;;1.27;0.63;;;17.70;64.60;;;;;;6110651;23;20237;-85
2024/01/29 05:10:53;;;;;;;0.50;0.45;;;17.70;64.50;;;;;;6136012;23;20131;-84
2024/01/29 05:18:20;;;;;;;0.60;0.43;;;17.70;64.70;;;;;;6153553;23;20207;-84
2024/01/29 05:20:46;;;;;;;0.40;0.40;;;17.70;64.70;;;;;;6130589;23;20587;-84
2024/01/29 05:23:12;;;;;;;0.77;0.52;;;17.70;64.40;;;;;;6130553;23;20139;-84
2024/01/29 05:25:38;;;;;;;0.73;0.60;;;17.70;64.50;;;;;;6130355;23;20847;-84
2024/01/29 05:28:04;;;;;;;0.75;0.57;;;17.70;64.60;;;;;;6130013;23;20132;-84
2024/01/29 05:30:30;;;;;;;0.70;0.47;;;17.70;64.50;;;;;;6131419;23;20190;-85
2024/01/29 05:32:56;;;;;;;0.98;0.57;;;17.70;64.50;;;;;;6107276;23;20140;-85
2024/01/29 05:35:22;;;;;;;0.88;0.40;;;17.80;64.70;;;;;;6107088;23;20507;-85
2024/01/29 05:37:54;;;;;;;1.00;0.63;;;17.70;64.50;;;;;;6082714;23;20150;-84
2024/01/29 05:40:23;;;;;;;0.50;0.40;;;17.80;64.50;;;;;;6105631;23;20151;-84
2024/01/29 05:42:52;;;;;;;1.48;0.55;;;17.70;64.50;;;;;;6130124;23;20160;-85
2024/01/29 05:45:19;;;;;;;0.82;0.60;;;17.70;64.00;;;;;;6117548;23;20506;-84
2024/01/29 05:47:45;;;;;;;0.80;0.52;;;17.70;64.40;;;;;;6105627;23;20136;-84
2024/01/29 05:50:11;;;;;;;0.73;0.40;;;17.70;64.40;;;;;;6080966;23;20230;-84
2024/01/29 05:52:36;;;;;;;0.85;0.60;;;17.70;64.80;;;;;;6082142;23;20158;-84
2024/01/29 05:55:02;;;;;;;0.60;0.45;;;17.70;64.60;;;;;;6081525;23;20262;-84
2024/01/29 05:57:28;;;;;;;0.77;0.45;;;17.70;64.40;;;;;;6081901;23;20148;-85
2024/01/29 06:02:29;;;;;;;0.85;0.50;;;17.70;64.70;;;;;;6171131;23;20206;-84
2024/01/29 06:04:55;;;;;;;1.13;0.50;;;17.70;64.40;;;;;;6133874;23;20157;-84
2024/01/29 06:07:21;;;;;;;1.10;0.52;;;17.70;64.40;;;;;;6134019;23;20242;-85
2024/01/29 06:09:47;;;;;;;0.77;0.47;;;17.70;64.40;;;;;;6159423;23;20574;-84
2024/01/29 06:14:42;;;;;;;0.65;0.60;;;17.70;64.30;;;;;;6125621;23;20196;-84
2024/01/29 06:17:09;;;;;;;0.55;0.52;;;17.70;64.10;;;;;;6125265;23;20147;-85
2024/01/29 06:19:35;;;;;;;1.40;0.50;;;17.70;64.10;;;;;;6100467;23;20220;-84
2024/01/29 06:22:01;;;;;;;0.60;0.50;;;17.70;64.30;;;;;;6127063;23;20152;-86
2024/01/29 06:24:27;;;;;;;0.60;0.55;;;17.70;64.40;;;;;;6102245;23;20206;-87
2024/01/29 06:26:52;;;;;;;1.48;0.68;;;17.70;64.40;;;;;;6102971;23;20282;-86
2024/01/29 06:29:18;;;;;;;0.60;0.60;;;17.80;64.10;;;;;;6101001;23;20159;-85
2024/01/29 06:31:44;;;;;;;1.30;0.68;;;17.70;64.00;;;;;;6076576;23;20607;-85
2024/01/29 06:34:12;;;;;;;0.82;0.50;;;17.70;64.20;;;;;;6149532;23;20207;-84
2024/01/29 06:36:37;;;;;;;0.82;0.47;;;17.70;64.30;;;;;;6076702;23;20151;-87
2024/01/29 06:39:03;;;;;;;0.68;0.50;;;17.70;64.30;;;;;;6125225;23;20160;-86
2024/01/29 06:41:30;;;;;;;0.63;0.55;;;17.70;64.10;;;;;;6099532;23;20167;-85
2024/01/29 06:43:56;;;;;;;0.70;0.45;;;17.70;64.30;;;;;;6100345;23;20159;-86
2024/01/29 06:46:22;;;;;;;0.90;0.50;;;17.70;64.30;;;;;;6125554;23;20136;-85
2024/01/29 06:48:49;;;;;;;1.17;0.60;;;17.80;63.10;;;;;;6076386;23;20564;-85
2024/01/29 06:51:15;;;;;;;0.45;0.45;;;17.80;62.90;;;;;;6125256;23;20215;-85
2024/01/29 06:53:43;;;;;;;0.43;0.40;;;17.90;62.70;;;;;;6079422;23;20144;-86
2024/01/29 06:56:09;;;;;;;0.50;0.50;;;17.90;63.00;;;;;;6102191;23;20171;-87
2024/01/29 06:58:36;;;;;;;1.02;0.60;;;18.00;63.10;;;;;;6101051;23;20155;-85
2024/01/29 07:01:03;;;;;;;0.65;0.40;;;17.90;63.00;;;;;;6101658;23;20188;-87
2024/01/29 07:03:29;;;;;;;1.95;0.50;;;17.90;62.90;;;;;;6077187;23;20564;-86
2024/01/29 07:05:56;;;;;;;1.13;0.70;;;18.00;62.40;;;;;;6125160;23;20155;-86
2024/01/29 07:08:24;;;;;;;1.48;0.50;;;18.00;62.30;;;;;;6078903;23;20152;-85
2024/01/29 07:10:50;;;;;;;0.80;0.50;;;18.00;62.00;;;;;;6127012;23;20191;-85
2024/01/29 07:13:18;;;;;;;1.00;0.47;;;18.00;62.00;;;;;;6152936;23;20210;-85
2024/01/29 07:15:45;;;;;;;1.27;0.70;;;18.00;62.20;;;;;;6082136;23;20199;-85
2024/01/29 07:18:16;;;;;;;0.80;0.57;;;18.00;61.80;;;;;;6131786;23;20144;-83
2024/01/29 07:21:59;;;;;;;;;;;;;;;;;;;;;
2024/01/29 07:57:38;;;;;;;;;;;;;;;;;;;;;
2024/01/29 08:07:37;;;;;;;;;;;;;;;;;;;;;
2024/01/29 08:46:35;;;;;;;4.18;1.20;;;18.20;61.00;;;;;;6157170;23;20247;-87
2024/01/29 08:49:01;;;;;;;2.80;0.60;;;18.20;61.00;;;;;;6084733;23;20164;-87
2024/01/29 08:51:47;;;;;;;;;;;;;;;;;;;;;
2024/01/29 08:54:16;;;;;;;5.05;0.65;;;18.30;61.10;;;;;;6022136;23;20196;-88
2024/01/29 08:56:42;;;;;;;1.05;0.57;;;18.30;61.00;;;;;;6044188;23;20486;-87
2024/01/29 08:59:31;;;;;;;1.23;0.57;;;18.30;60.90;;;;;;5975768;23;20150;-87
2024/01/29 09:02:18;;;;;;;2.10;0.70;;;18.40;60.10;;;;;;5968078;24;20166;-87
2024/01/29 09:08:21;;;;;;;1.50;0.60;;;18.40;60.90;;;;;;5939201;24;20228;-88
2024/01/29 09:11:48;;;;;;;2.30;0.80;;;18.40;61.00;;;;;;5961255;24;20156;-87
2024/01/29 09:14:27;;;;;;;0.95;0.60;;;18.40;60.90;;;;;;5878740;24;20166;-87
2024/01/29 09:16:58;;;;;;;3.58;0.50;;;18.40;60.90;;;;;;5832546;24;20158;-87
2024/01/29 09:19:51;;;;;;;;;;;;;;;;;;;;;
2024/01/29 09:22:22;;;;;;;3.38;0.88;;;18.40;60.90;;;;;;5805151;24;20178;-89
2024/01/29 09:25:13;;;;;;;4.13;0.70;;;18.40;61.00;;;;;;5809971;24;20627;-87
2024/01/29 09:27:41;;;;;;;2.05;0.55;;;18.50;61.40;;;;;;5812806;24;20248;-85
2024/01/29 09:30:39;;;;;;;2.38;0.43;;;18.50;61.40;;;;;;5805325;24;20170;-88
2024/01/29 09:33:05;;;;;;;3.30;0.75;;;18.40;61.80;;;;;;5877940;24;20158;-87
2024/01/29 09:36:02;;;;;;;1.83;0.68;;;18.50;61.10;;;;;;5852671;24;20189;-88
2024/01/29 09:38:37;;;;;;;1.52;0.50;;;18.50;61.30;;;;;;5871270;24;20217;-87
2024/01/29 09:41:07;;;;;;;2.28;0.70;;;18.40;61.10;;;;;;5887828;24;20235;-86
2024/01/29 09:43:37;;;;;;;3.72;0.60;;;18.50;60.80;;;;;;5890283;24;20186;-87
2024/01/29 09:46:13;;;;;;;;;;;;;;;;;;;;;
2024/01/29 09:49:26;;;;;;;2.75;0.82;;;18.50;61.00;;;;;;5816867;24;20193;-86
2024/01/29 09:52:37;;;;;;;2.08;0.73;;;18.50;60.30;;;;;;5918796;24;20193;-86
2024/01/29 09:56:14;;;;;;;4.03;0.73;;;18.50;60.70;;;;;;5906050;24;20260;-86
2024/01/29 10:03:04;;;;;;;3.58;0.80;;;18.60;61.30;;;;;;5907979;24;20140;-87
2024/01/29 10:05:53;;;;;;;1.95;0.90;;;18.50;60.90;;;;;;5853716;24;20162;-85
2024/01/29 10:08:25;;;;;;;4.55;0.80;;;18.60;61.00;;;;;;5803448;24;20218;-87
2024/01/29 10:14:46;;;;;;;;;;;;;;;;;;;;;
2024/01/29 10:18:32;;;;;;;;;;;;;;;;;;;;;
2024/01/29 10:21:05;;;;;;;4.35;1.55;;;18.60;61.70;;;;;;5593356;25;20236;-85
2024/01/29 10:23:46;;;;;;;5.32;1.00;;;18.60;61.80;;;;;;5574670;25;20165;-86
2024/01/29 10:26:15;;;;;;;3.58;0.60;;;18.50;62.30;;;;;;5609867;25;20621;-87
2024/01/29 10:28:43;;;;;;;1.73;0.70;;;18.60;62.00;;;;;;5583139;25;20196;-85
2024/01/29 10:31:15;;;;;;;4.60;0.68;;;18.60;61.80;;;;;;5646081;25;20171;-86
2024/01/29 10:34:05;;;;;;;;;;;;;;;;;;;;;
2024/01/29 10:36:33;;;;;;;1.77;0.65;;;18.60;61.70;;;;;;5675021;25;20194;-88
2024/01/29 10:39:10;;;;;;;1.67;0.80;;;18.60;62.20;;;;;;5669054;25;20276;-88
2024/01/29 10:41:36;;;;;;;6.28;0.98;;;18.60;62.00;;;;;;5665089;25;20282;-86
2024/01/29 10:44:05;;;;;;;3.03;0.80;;;18.50;62.30;;;;;;5664062;25;20159;-85
2024/01/29 10:46:34;;;;;;;1.92;0.70;;;18.50;62.30;;;;;;5669289;25;20303;-86
2024/01/29 10:49:00;;;;;;;4.53;0.90;;;18.60;62.20;;;;;;5691332;25;20565;-86
2024/01/29 10:51:27;;;;;;;2.08;0.70;;;18.60;62.30;;;;;;5699186;25;20181;-86
2024/01/29 10:54:02;;;;;;;1.95;0.80;;;18.60;62.20;;;;;;5750153;24;20179;-86
2024/01/29 10:56:28;;;;;;;3.10;0.70;;;18.50;62.50;;;;;;5845836;24;20180;-87
2024/01/29 10:58:58;;;;;;;1.83;0.68;;;18.50;62.30;;;;;;5905555;24;20293;-86
2024/01/29 11:01:27;;;;;;;2.05;0.57;;;18.50;62.50;;;;;;5905272;24;20597;-86
2024/01/29 11:04:00;;;;;;;4.45;0.90;;;18.50;62.50;;;;;;5927462;24;20160;-87
2024/01/29 11:06:45;;;;;;;2.33;0.80;;;18.50;62.20;;;;;;5939807;24;20161;-86
2024/01/29 11:09:13;;;;;;;3.75;0.70;;;18.50;62.30;;;;;;5928201;24;20152;-87
2024/01/29 11:11:48;;;;;;;1.50;0.73;;;18.50;62.40;;;;;;5928663;24;20577;-89
2024/01/29 11:14:19;;;;;;;2.08;0.63;;;18.60;62.30;;;;;;5900910;24;20157;-88
2024/01/29 11:16:45;;;;;;;0.82;0.68;;;18.50;62.20;;;;;;5900393;24;20180;-87
2024/01/29 11:19:11;;;;;;;2.83;0.80;;;18.50;62.00;;;;;;5919744;24;20512;-84
2024/01/29 11:21:49;;;;;;;3.05;0.70;;;18.50;62.00;;;;;;5930716;24;20270;-86
2024/01/29 11:24:15;;;;;;;1.85;0.85;;;18.60;62.10;;;;;;5906214;24;20237;-85
2024/01/29 11:26:40;;;;;;;2.10;0.80;;;18.60;61.70;;;;;;5962019;24;20607;-84
2024/01/29 11:29:06;;;;;;;1.52;0.60;;;18.60;61.30;;;;;;5983482;24;20171;-84
2024/01/29 11:31:41;;;;;;;2.60;0.90;;;18.60;61.70;;;;;;5984073;24;20159;-85
2024/01/29 11:34:07;;;;;;;2.33;0.80;;;18.60;62.50;;;;;;5984710;24;20610;-87
2024/01/29 11:36:37;;;;;;;1.20;0.70;;;18.50;61.70;;;;;;5993383;23;20161;-83
2024/01/29 11:39:04;;;;;;;2.05;0.82;;;18.50;61.90;;;;;;6031226;23;20598;-85
2024/01/29 11:41:33;;;;;;;1.30;0.70;;;18.50;61.40;;;;;;6058169;23;20461;-86
2024/01/29 11:44:00;;;;;;;1.30;0.98;;;18.60;61.80;;;;;;6053320;23;20232;-86
2024/01/29 11:46:27;;;;;;;2.13;0.80;;;18.60;62.10;;;;;;6060268;23;21240;-84
2024/01/29 11:48:57;;;;;;;1.08;0.73;;;18.60;61.80;;;;;;6103558;23;20160;-87
2024/01/29 11:51:25;;;;;;;3.03;0.50;;;18.60;61.40;;;;;;6132428;23;20392;-87
2024/01/29 11:54:03;;;;;;;1.55;0.70;;;18.60;62.30;;;;;;6166219;23;20131;-86
2024/01/29 11:56:30;;;;;;;1.50;1.00;;;18.60;62.00;;;;;;6141482;23;20490;-87
2024/01/29 11:59:12;;;;;;;2.13;0.50;;;18.60;62.30;;;;;;6141301;23;20138;-86
2024/01/29 12:01:53;;;;;;;1.27;0.70;;;18.50;62.40;;;;;;6141787;23;20158;-87
2024/01/29 12:55:04;;;;;;;0.80;0.65;;;18.60;62.10;;;;;;6075807;23;20239;-87
2024/01/29 12:57:50;;;;;;;2.55;0.77;;;18.70;61.60;;;;;;6033416;23;20161;-87
2024/01/29 13:00:20;;;;;;;1.48;0.65;;;18.70;61.70;;;;;;5972991;24;20151;-86
2024/01/29 13:02:51;;;;;;;2.33;0.90;;;18.60;61.80;;;;;;5989586;24;20197;-88
2024/01/29 13:09:03;;;;;;;0.95;0.50;;;18.50;61.90;;;;;;5956268;24;20202;-87
2024/01/29 13:11:32;;;;;;;1.15;0.70;;;18.60;62.20;;;;;;5914136;24;20244;-87
2024/01/29 13:13:59;;;;;;;0.90;0.70;;;18.60;62.10;;;;;;5937337;24;20159;-89
2024/01/29 13:16:31;;;;;;;0.70;0.60;;;18.50;62.30;;;;;;5919095;24;20631;-87
2024/01/29 13:19:02;;;;;;;0.82;0.70;;;18.60;62.60;;;;;;5942298;24;20163;-87
2024/01/29 13:21:44;;;;;;;0.68;0.50;;;18.50;61.70;;;;;;5941285;24;20217;-88
2024/01/29 13:24:11;;;;;;;0.82;0.60;;;18.50;62.20;;;;;;5923159;24;20218;-86
2024/01/29 13:26:41;;;;;;;0.60;0.60;;;18.60;62.20;;;;;;5990763;23;20166;-87
2024/01/29 13:29:11;;;;;;;0.80;0.65;;;18.60;62.00;;;;;;5989908;23;20160;-87
2024/01/29 13:32:09;;;;;;;1.38;0.82;;;18.50;62.10;;;;;;5997566;23;20155;-86
2024/01/29 13:34:38;;;;;;;0.98;0.70;;;18.60;62.30;;;;;;5990646;23;20179;-88
2024/01/29 13:37:04;;;;;;;2.75;0.75;;;18.60;61.60;;;;;;6017752;23;20147;-88
2024/01/29 13:39:30;;;;;;;4.32;0.70;;;18.60;62.40;;;;;;5995103;23;20162;-87
2024/01/29 13:42:03;;;;;;;1.38;0.73;;;18.60;62.10;;;;;;5995303;23;20147;-88
2024/01/29 13:44:32;;;;;;;0.85;0.70;;;18.60;61.40;;;;;;6045931;23;20453;-88
2024/01/29 13:47:00;;;;;;;0.90;0.60;;;18.60;61.80;;;;;;6027533;23;20720;-88
2024/01/29 13:49:31;;;;;;;0.70;0.60;;;18.50;62.40;;;;;;6049407;23;20177;-87
2024/01/29 13:51:59;;;;;;;2.70;0.90;;;18.50;61.70;;;;;;5961147;24;20164;-87
2024/01/29 13:58:06;;;;;;;1.65;0.52;;;18.50;61.40;;;;;;5910666;24;20203;-88
2024/01/29 14:04:48;;;;;;;1.50;1.00;;;18.50;62.60;;;;;;5855415;24;20170;-89
2024/01/29 14:07:14;;;;;;;1.58;1.00;;;18.60;61.80;;;;;;5821243;24;20164;-87
2024/01/29 14:09:44;;;;;;;0.63;0.50;;;18.60;61.30;;;;;;5821830;24;20167;-87
2024/01/29 14:12:25;;;;;;;0.60;0.60;;;18.60;62.20;;;;;;5820999;24;20160;-88
2024/01/29 14:14:55;;;;;;;1.98;0.70;;;18.60;62.50;;;;;;5820077;24;20207;-88
2024/01/29 14:17:36;;;;;;;1.05;0.80;;;18.60;62.30;;;;;;5833833;24;20163;-87
2024/01/29 14:20:37;;;;;;;1.60;0.75;;;18.60;61.80;;;;;;5792246;24;20168;-88
2024/01/29 14:23:46;;;;;;;;;;;;;;;;;;;;;
2024/01/29 14:26:26;;;;;;;0.77;0.70;;;18.50;62.50;;;;;;5715624;25;20682;-86
2024/01/29 14:29:03;;;;;;;1.13;0.90;;;18.50;62.10;;;;;;5690996;25;20194;-86
2024/01/29 14:31:31;;;;;;;1.13;0.80;;;18.50;62.60;;;;;;5713785;25;20182;-85
2024/01/29 14:34:03;;;;;;;0.95;0.90;;;18.50;62.00;;;;;;5694742;25;20171;-85
2024/01/29 14:36:36;;;;;;;2.47;0.90;;;18.50;61.80;;;;;;5669835;25;20241;-85
2024/01/29 14:39:04;;;;;;;0.68;0.50;;;18.50;62.60;;;;;;5669590;25;20171;-84
2024/01/29 14:41:30;;;;;;;0.90;0.70;;;18.50;62.50;;;;;;5715235;25;20198;-85
2024/01/29 14:43:56;;;;;;;1.77;0.80;;;18.60;62.30;;;;;;5715511;25;20159;-85
2024/01/29 14:46:31;;;;;;;1.00;0.90;;;18.50;62.50;;;;;;5688642;25;20254;-86
2024/01/29 14:52:14;;;;;;;0.57;0.50;;;18.50;62.20;;;;;;5589280;25;20191;-86
2024/01/29 14:54:45;;;;;;;1.88;0.90;;;18.60;62.10;;;;;;5717664;24;20235;-86
2024/01/29 14:57:20;;;;;;;1.05;0.82;;;18.60;62.30;;;;;;5769018;24;20159;-86
2024/01/29 15:03:20;;;;;;;1.52;0.50;;;18.60;61.80;;;;;;5826570;24;20688;-87
2024/01/29 16:54:00;;;;;;;4.05;0.98;;;18.90;61.20;;;;;;6279310;22;20629;-88
2024/01/29 16:56:19;;;;;;;1.55;1.00;;;19.00;60.10;;;;;;6253818;22;20176;-88
2024/01/29 16:58:51;;;;;;;1.40;0.80;;;18.90;61.00;;;;;;6270104;22;20648;-86
2024/01/29 17:01:31;;;;;;;3.10;1.20;;;18.90;60.90;;;;;;6181821;23;20154;-86
2024/01/29 17:04:00;;;;;;;2.53;1.10;;;19.00;61.30;;;;;;6156471;23;20154;-83
2024/01/29 17:07:13;;;;;;;2.25;1.30;;;18.90;61.80;;;;;;6117077;23;20156;-86
2024/01/29 17:13:30;;;;;;;;;;;;;;;;;;;;;
2024/01/29 17:15:56;;;;;;;4.88;1.20;;;19.00;61.70;;;;;;5893599;24;20210;-87
2024/01/29 17:18:25;;;;;;;4.13;1.50;;;19.10;61.60;;;;;;5857301;24;20185;-85
2024/01/29 17:21:21;;;;;;;;;;;;;;;;;;;;;
2024/01/29 17:24:05;;;;;;;;;;;;;;;;;;;;;
2024/01/29 17:27:00;;;;;;;1.17;0.80;;;19.00;62.30;;;;;;5885245;24;20169;-88
2024/01/29 17:29:37;;;;;;;4.15;1.10;;;18.90;62.10;;;;;;5831260;24;20197;-86
2024/01/29 17:35:26;;;;;;;2.08;0.98;;;19.00;62.00;;;;;;5859360;24;20336;-88
2024/01/29 17:38:41;;;;;;;;;;;;;;;;;;;;;
2024/01/29 17:41:22;;;;;;;2.42;1.00;;;18.90;62.10;;;;;;5851012;24;20709;-89
2024/01/29 17:44:20;;;;;;;5.97;1.45;;;18.90;61.80;;;;;;5821634;24;20163;-88
2024/01/29 17:47:10;;;;;;;1.48;1.10;;;19.00;61.70;;;;;;5805207;24;20164;-84
2024/01/29 17:49:37;;;;;;;4.72;1.02;;;19.00;61.90;;;;;;5775737;24;20162;-83
2024/01/29 17:52:04;;;;;;;1.90;1.05;;;19.00;62.10;;;;;;5751887;24;20240;-85
2024/01/29 17:54:56;;;;;;;1.25;1.00;;;19.10;62.00;;;;;;5804128;24;20251;-90
2024/01/29 17:58:00;;;;;;;3.30;1.08;;;19.00;62.70;;;;;;5856408;24;20170;-87
2024/01/29 18:03:28;;;;;;;2.45;1.15;;;19.00;62.90;;;;;;5938658;24;20210;-88
2024/01/29 18:15:36;;;;;;;3.38;1.17;;;18.90;63.20;;;;;;5858058;24;20194;-86
2024/01/29 18:18:27;;;;;;;1.40;0.93;;;19.00;63.30;;;;;;5855890;24;20150;-87
2024/01/29 18:21:52;;;;;;;2.25;1.30;;;19.00;63.70;;;;;;5806088;24;20155;-88
2024/01/29 18:24:22;;;;;;;3.22;1.50;;;19.10;63.00;;;;;;5782623;24;20478;-87
2024/01/29 18:26:50;;;;;;;1.48;1.02;;;19.10;62.70;;;;;;5754886;24;20318;-86
2024/01/29 18:29:27;;;;;;;1.60;1.20;;;19.10;62.90;;;;;;5753886;24;20161;-86
2024/01/29 18:32:02;;;;;;;1.63;1.10;;;19.10;62.10;;;;;;5773885;24;20165;-87
2024/01/29 18:34:45;;;;;;;2.65;1.02;;;19.00;62.50;;;;;;5832386;24;20157;-87
2024/01/29 18:37:47;;;;;;;1.73;1.02;;;19.00;62.80;;;;;;5844481;24;20237;-87
2024/01/29 18:40:25;;;;;;;1.48;1.10;;;19.00;62.70;;;;;;5861847;24;20242;-86
2024/01/29 18:43:02;;;;;;;2.28;1.25;;;19.00;63.70;;;;;;5809794;24;20170;-87
2024/01/29 18:46:01;;;;;;;3.47;1.10;;;18.90;63.80;;;;;;5871161;24;20178;-86
2024/01/29 18:48:36;;;;;;;4.60;1.33;;;18.90;63.70;;;;;;5956621;23;20166;-87
2024/01/29 18:51:13;;;;;;;2.53;1.20;;;18.90;63.20;;;;;;6035964;23;20147;-87